createdAt,value
2022-12-31T00:01:52.690Z,15.50
2022-12-31T00:04:27.279Z,16.13
2022-12-31T00:06:54.345Z,14.45
2022-12-31T00:09:22.044Z,11.45
2022-12-31T00:11:49.121Z,10.02
2022-12-31T00:14:16.190Z,10.00
2022-12-31T00:16:43.495Z,11.30
2022-12-31T00:19:12.245Z,12.20
2022-12-31T00:21:39.947Z,11.48
2022-12-31T00:24:07.629Z,10.45
2022-12-31T00:26:35.847Z,9.77
2022-12-31T00:29:04.765Z,10.75
2022-12-31T00:31:37.230Z,9.38
2022-12-31T00:34:05.561Z,8.10
2022-12-31T00:36:37.910Z,8.45
2022-12-31T00:39:07.210Z,7.50
2022-12-31T00:41:35.068Z,7.35
2022-12-31T00:44:02.801Z,7.03
2022-12-31T00:46:30.015Z,6.68
2022-12-31T00:48:58.156Z,7.13
2022-12-31T00:51:27.553Z,9.48
2022-12-31T00:53:56.089Z,10.68
2022-12-31T00:56:26.133Z,9.13
2022-12-31T00:58:53.154Z,11.18
2022-12-31T01:01:24.171Z,11.23
2022-12-31T01:03:55.026Z,10.98
2022-12-31T01:06:22.664Z,9.80
2022-12-31T01:08:50.695Z,8.88
2022-12-31T01:11:24.059Z,9.32
2022-12-31T01:13:56.966Z,9.15
2022-12-31T01:16:47.905Z,8.38
2022-12-31T01:19:26.482Z,10.80
2022-12-31T01:21:54.077Z,10.10
2022-12-31T01:24:21.159Z,9.32
2022-12-31T01:26:49.637Z,9.85
2022-12-31T01:29:17.061Z,9.00
2022-12-31T01:31:44.128Z,8.65
2022-12-31T01:34:11.221Z,9.82
2022-12-31T01:36:38.815Z,8.73
2022-12-31T01:39:09.735Z,7.13
2022-12-31T01:41:45.004Z,6.15
2022-12-31T01:44:14.067Z,5.65
2022-12-31T01:46:50.949Z,6.70
2022-12-31T01:49:23.754Z,6.78
2022-12-31T01:52:02.458Z,5.70
2022-12-31T01:54:33.772Z,4.78
2022-12-31T01:57:01.581Z,4.90
2022-12-31T01:59:29.891Z,5.45
2022-12-31T02:01:57.134Z,4.88
2022-12-31T02:04:25.882Z,5.97
2022-12-31T02:07:02.177Z,4.50
2022-12-31T02:09:30.457Z,4.70
2022-12-31T02:11:57.365Z,4.60
2022-12-31T02:14:32.909Z,4.10
2022-12-31T02:17:25.379Z,5.70
2022-12-31T02:20:13.691Z,5.55
2022-12-31T02:22:43.232Z,5.43
2022-12-31T02:25:29.343Z,4.40
2022-12-31T02:28:21.251Z,5.70
2022-12-31T02:30:59.833Z,5.45
2022-12-31T02:34:05.025Z,5.10
2022-12-31T02:36:39.018Z,6.72
2022-12-31T02:39:07.565Z,6.05
2022-12-31T02:41:53.872Z,8.02
2022-12-31T02:44:24.458Z,7.07
2022-12-31T02:47:25.918Z,8.10
2022-12-31T02:53:03.395Z,6.82
2022-12-31T02:55:47.670Z,7.85
2022-12-31T02:59:07.610Z,6.30
2022-12-31T03:01:58.760Z,8.75
2022-12-31T03:04:32.507Z,8.18
2022-12-31T03:07:11.538Z,7.32
2022-12-31T03:09:39.244Z,8.13
2022-12-31T03:12:27.232Z,6.85
2022-12-31T03:14:54.675Z,7.20
2022-12-31T03:17:22.058Z,6.50
2022-12-31T03:20:07.867Z,7.65
2022-12-31T03:22:38.509Z,7.65
2022-12-31T03:25:27.932Z,6.60
2022-12-31T03:27:56.304Z,7.78
2022-12-31T03:30:24.087Z,9.45
2022-12-31T03:32:51.923Z,9.70
2022-12-31T03:35:22.962Z,8.63
2022-12-31T03:37:51.593Z,7.47
2022-12-31T03:40:20.764Z,7.07
2022-12-31T03:42:47.889Z,7.10
2022-12-31T03:45:14.913Z,6.68
2022-12-31T03:47:41.926Z,6.72
2022-12-31T03:50:11.416Z,8.52
2022-12-31T03:52:38.681Z,7.80
2022-12-31T03:55:06.548Z,7.72
2022-12-31T03:57:33.543Z,6.72
2022-12-31T04:00:00.399Z,7.05
2022-12-31T04:02:29.402Z,6.28
2022-12-31T04:04:56.396Z,7.45
2022-12-31T04:07:23.861Z,8.07
2022-12-31T04:09:50.647Z,6.28
2022-12-31T04:12:17.534Z,6.40
2022-12-31T04:14:44.271Z,6.38
2022-12-31T04:17:11.217Z,7.22
2022-12-31T04:19:38.031Z,6.18
2022-12-31T04:22:05.251Z,6.70
2022-12-31T04:24:32.187Z,7.35
2022-12-31T04:27:05.384Z,7.30
2022-12-31T04:29:34.659Z,7.70
2022-12-31T04:32:01.717Z,6.28
2022-12-31T04:34:28.611Z,7.00
2022-12-31T04:36:55.418Z,7.88
2022-12-31T04:39:22.266Z,7.13
2022-12-31T04:41:49.792Z,8.50
2022-12-31T04:44:16.768Z,8.60
2022-12-31T04:46:44.274Z,9.18
2022-12-31T04:49:11.327Z,8.82
2022-12-31T04:51:38.269Z,7.93
2022-12-31T04:54:05.557Z,8.35
2022-12-31T04:56:33.030Z,7.18
2022-12-31T04:58:59.870Z,7.93
2022-12-31T05:01:26.891Z,8.52
2022-12-31T05:03:53.768Z,6.78
2022-12-31T05:06:23.018Z,7.85
2022-12-31T05:08:50.467Z,7.55
2022-12-31T05:11:17.459Z,6.75
2022-12-31T05:13:44.605Z,6.88
2022-12-31T05:16:11.589Z,6.55
2022-12-31T05:18:38.491Z,6.88
2022-12-31T05:21:06.217Z,7.45
2022-12-31T05:23:33.122Z,6.47
2022-12-31T05:26:00.052Z,6.97
2022-12-31T05:28:26.946Z,7.35
2022-12-31T05:30:53.945Z,7.53
2022-12-31T05:33:21.340Z,8.35
2022-12-31T05:35:48.194Z,7.10
2022-12-31T05:38:15.086Z,6.60
2022-12-31T05:40:42.127Z,7.20
2022-12-31T05:43:08.990Z,6.07
2022-12-31T05:45:35.832Z,5.90
2022-12-31T05:48:02.651Z,4.93
2022-12-31T05:50:29.599Z,7.00
2022-12-31T05:52:56.616Z,5.20
2022-12-31T05:55:24.241Z,6.78
2022-12-31T05:57:51.110Z,5.97
2022-12-31T06:00:18.076Z,4.85
2022-12-31T06:02:45.604Z,5.45
2022-12-31T06:05:13.138Z,4.97
2022-12-31T06:07:39.911Z,6.32
2022-12-31T06:10:07.512Z,6.38
2022-12-31T06:12:34.329Z,5.47
2022-12-31T06:15:01.300Z,5.60
2022-12-31T06:17:32.492Z,5.35
2022-12-31T06:19:59.959Z,5.85
2022-12-31T06:22:26.848Z,5.20
2022-12-31T06:24:53.725Z,6.78
2022-12-31T06:27:20.516Z,8.43
2022-12-31T06:29:48.092Z,7.35
2022-12-31T06:32:15.965Z,6.93
2022-12-31T06:34:42.823Z,6.75
2022-12-31T06:37:09.860Z,6.88
2022-12-31T06:39:36.725Z,8.18
2022-12-31T06:42:03.470Z,11.82
2022-12-31T06:44:30.332Z,8.85
2022-12-31T06:46:57.090Z,6.55
2022-12-31T06:49:24.154Z,7.80
2022-12-31T06:51:51.000Z,7.65
2022-12-31T06:54:17.888Z,6.78
2022-12-31T06:56:45.152Z,6.82
2022-12-31T06:59:30.199Z,5.95
2022-12-31T07:02:37.430Z,5.70
2022-12-31T07:05:12.989Z,5.80
2022-12-31T07:07:54.509Z,6.70
2022-12-31T07:10:39.583Z,6.20
2022-12-31T07:13:24.794Z,6.20
2022-12-31T07:15:53.196Z,6.28
2022-12-31T07:18:31.824Z,7.22
2022-12-31T07:20:59.464Z,8.30
2022-12-31T07:23:26.548Z,7.22
2022-12-31T07:26:11.029Z,5.85
2022-12-31T07:28:40.818Z,5.18
2022-12-31T07:31:10.620Z,5.20
2022-12-31T07:33:40.339Z,4.90
2022-12-31T07:36:25.621Z,5.47
2022-12-31T07:39:05.599Z,4.38
2022-12-31T07:41:47.478Z,4.53
2022-12-31T07:44:42.299Z,4.30
2022-12-31T07:47:21.278Z,4.38
2022-12-31T07:49:49.104Z,6.47
2022-12-31T07:52:16.524Z,7.10
2022-12-31T07:54:43.974Z,7.45
2022-12-31T07:57:15.810Z,7.32
2022-12-31T07:59:58.777Z,8.10
2022-12-31T08:02:59.372Z,8.07
2022-12-31T08:05:46.407Z,7.78
2022-12-31T08:08:19.130Z,6.70
2022-12-31T08:11:05.100Z,7.15
2022-12-31T08:13:32.571Z,7.45
2022-12-31T08:16:00.280Z,6.63
2022-12-31T08:18:27.383Z,7.13
2022-12-31T08:21:00.166Z,7.40
2022-12-31T08:23:58.009Z,6.65
2022-12-31T08:26:46.908Z,7.00
2022-12-31T08:29:31.423Z,7.13
2022-12-31T08:32:19.686Z,8.45
2022-12-31T08:34:57.626Z,8.13
2022-12-31T08:38:01.915Z,7.47
2022-12-31T08:40:39.563Z,8.38
2022-12-31T08:43:06.322Z,9.27
2022-12-31T08:45:49.430Z,9.23
2022-12-31T08:50:53.390Z,8.60
2022-12-31T08:53:20.581Z,8.70
2022-12-31T08:55:49.601Z,8.50
2022-12-31T08:58:19.250Z,8.38
2022-12-31T09:00:50.046Z,9.52
2022-12-31T09:06:27.317Z,8.38
2022-12-31T09:09:07.182Z,7.35
2022-12-31T09:11:49.481Z,8.30
2022-12-31T09:14:48.677Z,9.23
2022-12-31T09:17:43.017Z,8.48
2022-12-31T09:20:42.270Z,8.70
2022-12-31T09:23:11.541Z,7.88
2022-12-31T09:25:45.835Z,7.38
2022-12-31T09:28:15.519Z,8.82
2022-12-31T09:30:58.315Z,7.18
2022-12-31T09:33:46.727Z,8.98
2022-12-31T09:36:22.273Z,8.23
2022-12-31T09:38:56.043Z,8.95
2022-12-31T09:41:48.899Z,10.27
2022-12-31T09:44:43.411Z,12.70
2022-12-31T09:47:22.239Z,11.75
2022-12-31T09:50:26.615Z,12.10
2022-12-31T09:53:12.638Z,10.13
2022-12-31T09:56:04.214Z,8.50
2022-12-31T09:58:49.341Z,7.60
2022-12-31T10:01:19.338Z,6.22
2022-12-31T10:04:13.259Z,6.57
2022-12-31T10:06:40.017Z,5.30
2022-12-31T10:09:24.846Z,4.90
2022-12-31T10:12:13.311Z,6.88
2022-12-31T10:14:58.026Z,7.95
2022-12-31T10:17:43.283Z,6.80
2022-12-31T10:20:22.690Z,5.85
2022-12-31T10:23:19.388Z,6.47
2022-12-31T10:26:08.960Z,8.60
2022-12-31T10:28:56.411Z,6.93
2022-12-31T10:31:55.388Z,8.40
2022-12-31T10:34:22.147Z,7.50
2022-12-31T10:37:13.758Z,7.65
2022-12-31T10:40:05.063Z,7.75
2022-12-31T10:43:08.415Z,6.68
2022-12-31T10:45:58.550Z,7.85
2022-12-31T10:48:54.984Z,16.27
2022-12-31T10:51:40.061Z,11.50
2022-12-31T10:54:35.977Z,8.38
2022-12-31T10:57:25.983Z,9.20
2022-12-31T11:00:11.246Z,11.10
2022-12-31T11:03:07.376Z,10.80
2022-12-31T11:05:52.851Z,11.85
2022-12-31T11:08:44.284Z,11.57
2022-12-31T11:11:35.821Z,11.80
2022-12-31T11:14:27.201Z,11.05
2022-12-31T11:17:07.006Z,11.98
2022-12-31T11:19:48.809Z,11.57
2022-12-31T11:22:41.940Z,8.82
2022-12-31T11:25:11.957Z,10.43
2022-12-31T11:27:49.583Z,9.23
2022-12-31T11:30:37.041Z,9.50
2022-12-31T11:33:22.677Z,9.35
2022-12-31T11:36:26.882Z,9.10
2022-12-31T11:39:13.446Z,10.23
2022-12-31T11:41:49.690Z,10.95
2022-12-31T11:44:54.806Z,11.98
2022-12-31T11:48:20.259Z,11.98
2022-12-31T11:50:44.773Z,14.23
2022-12-31T12:15:06.991Z,12.90
2022-12-31T12:24:07.087Z,9.10
2022-12-31T12:36:32.937Z,5.60
2022-12-31T12:39:06.864Z,5.68
2022-12-31T12:41:36.802Z,3.80
2022-12-31T12:44:14.113Z,4.40
2022-12-31T12:46:48.396Z,3.50
2022-12-31T12:49:26.646Z,3.28
2022-12-31T12:52:27.554Z,3.95
2022-12-31T12:55:28.615Z,5.30
2022-12-31T13:00:52.082Z,13.70
2022-12-31T13:07:05.643Z,19.30
2022-12-31T13:09:50.859Z,18.42
2022-12-31T13:13:05.233Z,18.77
2022-12-31T13:16:05.965Z,21.30
2022-12-31T13:18:44.733Z,25.05
2022-12-31T13:21:41.931Z,22.30
2022-12-31T13:24:28.478Z,21.70
2022-12-31T13:27:10.115Z,18.02
2022-12-31T13:29:39.739Z,16.25
2022-12-31T13:32:13.046Z,17.08
2022-12-31T13:34:44.566Z,16.25
2022-12-31T13:37:33.880Z,13.20
2022-12-31T13:43:34.448Z,16.15
2022-12-31T13:46:09.767Z,14.07
2022-12-31T13:48:44.621Z,13.88
2022-12-31T13:51:23.085Z,13.60
2022-12-31T13:53:53.717Z,30.73
2022-12-31T13:56:25.798Z,27.52
2022-12-31T13:59:04.834Z,16.27
2022-12-31T14:01:41.139Z,15.25
2022-12-31T14:04:44.945Z,28.25
2022-12-31T14:07:20.036Z,14.57
2022-12-31T14:09:46.898Z,13.20
2022-12-31T14:12:39.923Z,35.50
2022-12-31T14:15:13.553Z,12.43
2022-12-31T14:17:55.776Z,24.00
2022-12-31T14:20:28.960Z,15.25
2022-12-31T14:23:11.075Z,14.00
2022-12-31T14:25:47.395Z,13.73
2022-12-31T14:28:29.487Z,16.80
2022-12-31T14:31:07.270Z,19.98
2022-12-31T14:34:29.665Z,20.38
2022-12-31T14:37:05.720Z,14.73
2022-12-31T14:39:49.630Z,15.30
2022-12-31T14:42:36.979Z,12.25
2022-12-31T14:45:17.780Z,10.75
2022-12-31T14:47:44.574Z,11.95
2022-12-31T14:50:17.509Z,10.48
2022-12-31T14:52:52.313Z,10.95
2022-12-31T14:55:24.246Z,23.65
2022-12-31T15:00:52.535Z,18.13
2022-12-31T15:03:46.116Z,23.27
2022-12-31T15:06:53.019Z,30.98
2022-12-31T15:10:04.553Z,22.05
2022-12-31T15:12:34.371Z,15.52
2022-12-31T15:15:03.900Z,14.48
2022-12-31T15:17:39.657Z,13.10
2022-12-31T15:20:43.714Z,12.48
2022-12-31T15:23:25.645Z,12.68
2022-12-31T15:26:00.417Z,11.98
2022-12-31T15:28:35.449Z,13.23
2022-12-31T15:31:07.598Z,12.23
2022-12-31T15:33:53.273Z,12.43
2022-12-31T15:36:23.308Z,13.13
2022-12-31T15:38:50.944Z,13.52
2022-12-31T15:41:27.019Z,13.73
2022-12-31T15:44:15.138Z,13.68
2022-12-31T15:46:43.959Z,12.15
2022-12-31T15:49:18.388Z,18.85
2022-12-31T15:52:13.425Z,21.15
2022-12-31T15:54:44.487Z,18.55
2022-12-31T15:57:21.368Z,22.00
2022-12-31T15:59:48.394Z,16.40
2022-12-31T16:02:25.932Z,15.10
2022-12-31T16:04:55.098Z,18.98
2022-12-31T16:07:24.554Z,19.90
2022-12-31T16:09:58.265Z,26.60
2022-12-31T16:12:34.445Z,20.60
2022-12-31T16:15:03.330Z,21.00
2022-12-31T16:17:33.959Z,24.30
2022-12-31T16:20:03.129Z,23.45
2022-12-31T16:22:37.501Z,29.63
2022-12-31T16:30:21.707Z,17.98
2022-12-31T16:32:50.250Z,23.73
2022-12-31T16:35:32.328Z,26.27
2022-12-31T16:38:22.907Z,21.60
2022-12-31T16:41:05.067Z,20.30
2022-12-31T16:43:40.399Z,19.58
2022-12-31T16:46:35.174Z,19.40
2022-12-31T16:49:16.051Z,28.27
2022-12-31T16:51:43.264Z,27.23
2022-12-31T16:54:24.692Z,23.67
2022-12-31T16:56:52.002Z,18.88
2022-12-31T16:59:44.216Z,20.25
2022-12-31T17:02:18.122Z,19.95
2022-12-31T17:04:56.367Z,19.95
2022-12-31T17:07:32.509Z,17.65
2022-12-31T17:10:22.662Z,16.10
2022-12-31T17:15:44.428Z,18.95
2022-12-31T17:18:20.028Z,19.05
2022-12-31T17:20:48.711Z,20.33
2022-12-31T17:23:36.794Z,18.38
2022-12-31T17:26:21.505Z,20.13
2022-12-31T17:28:51.780Z,25.52
2022-12-31T17:31:29.979Z,26.55
2022-12-31T17:34:15.556Z,23.65
2022-12-31T17:37:17.705Z,19.50
2022-12-31T17:39:53.143Z,20.88
2022-12-31T17:42:37.390Z,28.92
2022-12-31T17:45:18.077Z,25.48
2022-12-31T17:47:51.175Z,26.23
2022-12-31T17:50:26.714Z,31.20
2022-12-31T17:53:04.682Z,21.55
2022-12-31T17:55:31.612Z,21.90
2022-12-31T17:57:58.590Z,30.02
2022-12-31T18:00:27.914Z,30.35
2022-12-31T18:02:55.059Z,28.02
2022-12-31T18:05:24.436Z,32.00
2022-12-31T18:07:51.987Z,30.40
2022-12-31T18:10:22.375Z,29.20
2022-12-31T18:12:49.515Z,35.20
2022-12-31T18:15:19.716Z,47.67
2022-12-31T18:17:46.705Z,43.67
2022-12-31T18:20:13.920Z,49.75
2022-12-31T18:22:45.112Z,54.17
2022-12-31T18:25:24.678Z,24.77
2022-12-31T18:27:52.548Z,25.65
2022-12-31T18:30:19.652Z,19.63
2022-12-31T18:32:47.009Z,21.90
2022-12-31T18:35:48.565Z,19.67
2022-12-31T18:38:11.810Z,25.25
2022-12-31T18:40:42.757Z,24.70
2022-12-31T18:43:18.933Z,34.33
2022-12-31T18:45:47.539Z,41.55
2022-12-31T18:48:15.075Z,23.20
2022-12-31T18:50:42.631Z,29.52
2022-12-31T18:53:18.459Z,38.50
2022-12-31T18:55:51.262Z,46.22
2022-12-31T18:58:18.651Z,43.47
2022-12-31T19:00:46.140Z,30.48
2022-12-31T19:03:22.317Z,25.42
2022-12-31T19:05:51.202Z,38.22
2022-12-31T19:08:19.396Z,39.25
2022-12-31T19:10:47.916Z,36.05
2022-12-31T19:13:16.525Z,33.10
2022-12-31T19:15:51.878Z,35.55
2022-12-31T19:18:19.513Z,31.30
2022-12-31T19:21:19.722Z,33.90
2022-12-31T19:23:47.126Z,34.80
2022-12-31T19:26:19.289Z,31.05
2022-12-31T19:28:47.694Z,28.70
2022-12-31T19:31:17.670Z,34.70
2022-12-31T19:33:44.798Z,35.38
2022-12-31T19:36:19.331Z,40.00
2022-12-31T19:38:46.824Z,30.85
2022-12-31T19:41:16.270Z,32.35
2022-12-31T19:43:43.440Z,37.97
2022-12-31T19:46:14.840Z,37.17
2022-12-31T19:48:42.090Z,28.15
2022-12-31T19:54:00.799Z,44.88
2022-12-31T19:56:27.689Z,43.05
2022-12-31T19:58:54.582Z,46.22
2022-12-31T20:01:23.745Z,48.85
2022-12-31T20:03:51.658Z,43.60
2022-12-31T20:06:18.909Z,33.92
2022-12-31T20:08:46.683Z,37.22
2022-12-31T20:11:21.935Z,40.05
2022-12-31T20:13:50.110Z,34.03
2022-12-31T20:16:19.859Z,34.75
2022-12-31T20:18:48.017Z,36.00
2022-12-31T20:21:18.047Z,42.03
2022-12-31T20:23:45.716Z,44.03
2022-12-31T20:26:13.006Z,40.58
2022-12-31T20:28:40.217Z,37.05
2022-12-31T20:31:11.835Z,35.00
2022-12-31T20:33:39.050Z,33.15
2022-12-31T20:36:13.717Z,36.05
2022-12-31T20:38:44.411Z,33.78
2022-12-31T20:41:18.170Z,30.48
2022-12-31T20:43:46.482Z,28.33
2022-12-31T20:46:16.396Z,30.25
2022-12-31T20:48:44.546Z,27.38
2022-12-31T20:51:13.092Z,23.42
2022-12-31T20:53:40.732Z,30.50
2022-12-31T20:56:08.953Z,29.90
2022-12-31T20:58:36.128Z,24.33
2022-12-31T21:01:07.388Z,24.80
2022-12-31T21:06:27.177Z,18.27
2022-12-31T21:08:58.863Z,15.48
2022-12-31T21:11:44.843Z,19.85
2022-12-31T21:14:11.745Z,17.05
2022-12-31T21:16:38.820Z,14.60
2022-12-31T21:19:06.077Z,17.30
2022-12-31T21:21:33.449Z,15.65
2022-12-31T21:24:00.436Z,15.30
2022-12-31T21:26:27.791Z,16.90
2022-12-31T21:28:54.659Z,18.40
2022-12-31T21:31:21.549Z,19.48
2022-12-31T21:33:49.467Z,19.38
2022-12-31T21:36:16.384Z,22.13
2022-12-31T21:38:43.945Z,21.73
2022-12-31T21:41:35.089Z,23.80
2022-12-31T21:44:02.313Z,25.48
2022-12-31T21:46:29.731Z,32.88
2022-12-31T21:49:00.255Z,36.85
2022-12-31T21:51:28.500Z,41.78
2022-12-31T21:53:55.497Z,43.33
2022-12-31T21:56:22.668Z,31.77
2022-12-31T21:59:16.795Z,37.63
2022-12-31T22:02:02.593Z,35.75
2022-12-31T22:07:16.793Z,32.33
2022-12-31T22:09:43.631Z,30.55
2022-12-31T22:12:10.500Z,30.75
2022-12-31T22:14:37.295Z,29.00
2022-12-31T22:17:04.350Z,24.67
2022-12-31T22:19:31.191Z,25.20
2022-12-31T22:21:58.155Z,32.88
2022-12-31T22:24:24.999Z,45.65
2022-12-31T22:26:54.259Z,46.90
2022-12-31T22:29:21.692Z,53.97
2022-12-31T22:31:48.547Z,49.67
2022-12-31T22:34:15.539Z,84.32
2022-12-31T22:36:42.440Z,74.45
2022-12-31T22:39:44.033Z,59.28
2022-12-31T22:42:01.856Z,65.13
2022-12-31T22:44:28.871Z,55.20
2022-12-31T22:46:56.377Z,52.25
2022-12-31T22:49:23.421Z,57.80
2022-12-31T22:51:56.391Z,58.67
2022-12-31T22:54:25.826Z,68.65
2022-12-31T22:56:52.685Z,77.20
2022-12-31T22:59:19.630Z,70.25
2022-12-31T23:01:46.475Z,54.08
2022-12-31T23:04:13.913Z,52.25
2022-12-31T23:06:43.993Z,54.17
2022-12-31T23:09:33.693Z,44.28
2022-12-31T23:12:01.267Z,42.42
2022-12-31T23:14:46.660Z,43.75
2022-12-31T23:17:35.524Z,48.38
2022-12-31T23:20:22.298Z,58.05
2022-12-31T23:23:08.019Z,49.97
2022-12-31T23:25:36.861Z,56.10
2022-12-31T23:28:05.040Z,49.50
2022-12-31T23:30:31.999Z,76.25
2022-12-31T23:32:58.878Z,79.70
2022-12-31T23:35:26.788Z,62.80
2022-12-31T23:37:54.014Z,86.28
2022-12-31T23:40:22.073Z,97.28
2022-12-31T23:42:50.260Z,85.65
2022-12-31T23:45:17.218Z,81.25
2022-12-31T23:47:44.193Z,79.93
2022-12-31T23:50:11.087Z,58.60
2022-12-31T23:52:38.432Z,58.05
2022-12-31T23:55:05.570Z,52.05
2022-12-31T23:57:32.411Z,45.17
2022-12-31T23:59:59.640Z,36.05
